Terminal Aerodrome Forecast
Issued by NWS

Current Version | Previous Version | Text Only | Print | Product List | Glossary On
Versions: 1 2 3 4 5 6 7 8 9 10 11 12 13 14
000
FTUS42 KTBW 251125
TAFPGD
TAF
KPGD 251125Z 2512/2612 06006KT P6SM FEW025 SCT250
     FM251400 10010KT P6SM SCT030 SCT250
     FM252100 10010KT P6SM VCTS BKN050CB BKN250
     FM260000 12009KT P6SM VCSH SCT030 BKN050 BKN250
     FM260200 09007KT P6SM FEW025 SCT100 BKN250=

USA.gov is the U.S. government's official web portal to all federal, state and local government web resources and services.